sensor_id;sensor_type;location;lat;lon;timestamp;pressure;altitude;pressure_sealevel;temperature;humidity
12722;BME280;6425;50.316;8.114;2023-09-19T00:00:00;984;;;16;100
12722;BME280;6425;50.316;8.114;2023-09-19T00:03:00;984;;;16;100
12722;BME280;6425;50.316;8.114;2023-09-19T00:06:00;984;;;16;100
12722;BME280;6425;50.316;8.114;2023-09-19T00:09:00;984;;;15.9;100
12722;BME280;6425;50.316;8.114;2023-09-19T00:12:00;984;;;15.8;100
12722;BME280;6425;50.316;8.114;2023-09-19T00:15:00;984;;;15.7;100
12722;BME280;6425;50.316;8.114;2023-09-19T00:18:00;984;;;15.7;100
12722;BME280;6425;50.316;8.114;2023-09-19T00:21:00;984;;;15.6;100
12722;BME280;6425;50.316;8.114;2023-09-19T00:24:00;984;;;15.6;100
12722;BME280;6425;50.316;8.114;2023-09-19T00:27:00;984;;;15.6;100
12722;BME280;6425;50.316;8.114;2023-09-19T00:30:00;984;;;15.6;100
12722;BME280;6425;50.316;8.114;2023-09-19T00:33:00;984;;;15.7;100
12722;BME280;6425;50.316;8.114;2023-09-19T00:36:00;985;;;15.7;100
12722;BME280;6425;50.316;8.114;2023-09-19T00:39:00;984;;;15.7;100
12722;BME280;6425;50.316;8.114;2023-09-19T00:42:00;985;;;15.6;100
12722;BME280;6425;50.316;8.114;2023-09-19T00:45:00;985;;;15.5;100
12722;BME280;6425;50.316;8.114;2023-09-19T00:48:00;985;;;15.5;100
12722;BME280;6425;50.316;8.114;2023-09-19T00:51:02;985;;;15.5;100
12722;BME280;6425;50.316;8.114;2023-09-19T00:54:00;985;;;15.5;100
12722;BME280;6425;50.316;8.114;2023-09-19T00:57:00;985;;;15.5;100
12722;BME280;6425;50.316;8.114;2023-09-19T01:00:00;985;;;15.5;100
12722;BME280;6425;50.316;8.114;2023-09-19T01:03:00;985;;;15.5;100
12722;BME280;6425;50.316;8.114;2023-09-19T01:06:00;985;;;15.5;100
12722;BME280;6425;50.316;8.114;2023-09-19T01:09:00;985;;;15.5;100
12722;BME280;6425;50.316;8.114;2023-09-19T01:12:01;985;;;15.4;100
12722;BME280;6425;50.316;8.114;2023-09-19T01:15:01;985;;;15.4;100
12722;BME280;6425;50.316;8.114;2023-09-19T01:18:01;985;;;15.3;100
12722;BME280;6425;50.316;8.114;2023-09-19T01:21:01;985;;;15.4;100
12722;BME280;6425;50.316;8.114;2023-09-19T01:24:07;985;;;15.4;100
12722;BME280;6425;50.316;8.114;2023-09-19T01:27:14;985;;;15.4;100
12722;BME280;6425;50.316;8.114;2023-09-19T01:30:06;985;;;15.4;100
12722;BME280;6425;50.316;8.114;2023-09-19T01:33:00;985;;;15.3;100
12722;BME280;6425;50.316;8.114;2023-09-19T01:36:00;985;;;15.3;100
12722;BME280;6425;50.316;8.114;2023-09-19T01:39:00;985;;;15.2;100
12722;BME280;6425;50.316;8.114;2023-09-19T01:42:01;985;;;15.3;100
12722;BME280;6425;50.316;8.114;2023-09-19T01:45:02;985;;;15.3;100
12722;BME280;6425;50.316;8.114;2023-09-19T01:48:02;985;;;15.2;100
12722;BME280;6425;50.316;8.114;2023-09-19T01:51:00;985;;;15.2;100
12722;BME280;6425;50.316;8.114;2023-09-19T01:54:00;985;;;15.1;100
12722;BME280;6425;50.316;8.114;2023-09-19T01:57:01;985;;;15.1;100
12722;BME280;6425;50.316;8.114;2023-09-19T02:00:00;985;;;15.1;100
12722;BME280;6425;50.316;8.114;2023-09-19T02:03:00;985;;;15;100
12722;BME280;6425;50.316;8.114;2023-09-19T02:06:00;985;;;15.1;100
12722;BME280;6425;50.316;8.114;2023-09-19T02:09:00;985;;;15.3;100
12722;BME280;6425;50.316;8.114;2023-09-19T02:12:00;985;;;15.4;100
12722;BME280;6425;50.316;8.114;2023-09-19T02:15:00;986;;;15.4;100
12722;BME280;6425;50.316;8.114;2023-09-19T02:18:00;986;;;15.3;100
12722;BME280;6425;50.316;8.114;2023-09-19T02:21:00;986;;;15.2;100
12722;BME280;6425;50.316;8.114;2023-09-19T02:24:00;986;;;15.1;100
12722;BME280;6425;50.316;8.114;2023-09-19T02:27:00;986;;;15.1;100
12722;BME280;6425;50.316;8.114;2023-09-19T02:30:00;986;;;15.1;99.3
12722;BME280;6425;50.316;8.114;2023-09-19T02:33:00;986;;;15.1;98.6
12722;BME280;6425;50.316;8.114;2023-09-19T02:36:00;986;;;15.1;97.5
12722;BME280;6425;50.316;8.114;2023-09-19T02:39:00;986;;;15.1;97.1
12722;BME280;6425;50.316;8.114;2023-09-19T02:42:00;986;;;15.1;96.3
12722;BME280;6425;50.316;8.114;2023-09-19T02:45:00;986;;;15.2;95.5
12722;BME280;6425;50.316;8.114;2023-09-19T02:48:00;986;;;15.4;93.4
12722;BME280;6425;50.316;8.114;2023-09-19T02:51:00;986;;;15.5;91.3
12722;BME280;6425;50.316;8.114;2023-09-19T02:54:00;986;;;15.6;89.9
12722;BME280;6425;50.316;8.114;2023-09-19T02:57:00;986;;;15.7;89
12722;BME280;6425;50.316;8.114;2023-09-19T03:00:00;986;;;15.8;88.1
12722;BME280;6425;50.316;8.114;2023-09-19T03:03:00;986;;;15.8;87
12722;BME280;6425;50.316;8.114;2023-09-19T03:06:00;986;;;15.8;86.1
12722;BME280;6425;50.316;8.114;2023-09-19T03:09:00;986;;;15.9;85.7
12722;BME280;6425;50.316;8.114;2023-09-19T03:12:00;986;;;16;84.4
12722;BME280;6425;50.316;8.114;2023-09-19T03:15:00;986;;;16;84.1
12722;BME280;6425;50.316;8.114;2023-09-19T03:18:00;986;;;15.6;85.8
12722;BME280;6425;50.316;8.114;2023-09-19T03:21:00;986;;;15.5;86.4
12722;BME280;6425;50.316;8.114;2023-09-19T03:24:00;986;;;15.6;85.8
12722;BME280;6425;50.316;8.114;2023-09-19T03:27:00;986;;;15.5;86.8
12722;BME280;6425;50.316;8.114;2023-09-19T03:30:00;986;;;15.4;86.9
12722;BME280;6425;50.316;8.114;2023-09-19T03:33:00;986;;;15.3;88.1
12722;BME280;6425;50.316;8.114;2023-09-19T03:36:00;986;;;15.4;88.9
12722;BME280;6425;50.316;8.114;2023-09-19T03:39:00;986;;;15.2;90
12722;BME280;6425;50.316;8.114;2023-09-19T03:42:00;986;;;14.9;92.9
12722;BME280;6425;50.316;8.114;2023-09-19T03:45:00;986;;;14.9;94.1
12722;BME280;6425;50.316;8.114;2023-09-19T03:48:00;986;;;14.6;95.4
12722;BME280;6425;50.316;8.114;2023-09-19T03:51:00;986;;;14.7;96.8
12722;BME280;6425;50.316;8.114;2023-09-19T03:54:00;986;;;14.8;96.5
12722;BME280;6425;50.316;8.114;2023-09-19T03:57:00;986;;;14.6;97.2
12722;BME280;6425;50.316;8.114;2023-09-19T04:00:00;986;;;14.6;97.2
12722;BME280;6425;50.316;8.114;2023-09-19T04:03:00;986;;;14.6;97.5
12722;BME280;6425;50.316;8.114;2023-09-19T04:06:00;986;;;14.6;97.6
12722;BME280;6425;50.316;8.114;2023-09-19T04:09:00;986;;;14.6;98.5
12722;BME280;6425;50.316;8.114;2023-09-19T04:12:00;986;;;14.6;98.2
12722;BME280;6425;50.316;8.114;2023-09-19T04:15:00;986;;;14.6;97.7
12722;BME280;6425;50.316;8.114;2023-09-19T04:18:00;986;;;14.6;98.1
12722;BME280;6425;50.316;8.114;2023-09-19T04:21:00;986;;;14.5;98.8
12722;BME280;6425;50.316;8.114;2023-09-19T04:24:00;986;;;14.5;99.5
12722;BME280;6425;50.316;8.114;2023-09-19T04:27:00;986;;;14.6;98.8
12722;BME280;6425;50.316;8.114;2023-09-19T04:30:00;986;;;14.7;97.7
12722;BME280;6425;50.316;8.114;2023-09-19T04:33:00;986;;;14.6;98.2
12722;BME280;6425;50.316;8.114;2023-09-19T04:36:00;986;;;14.5;98.8
12722;BME280;6425;50.316;8.114;2023-09-19T04:39:00;986;;;14.6;99
12722;BME280;6425;50.316;8.114;2023-09-19T04:42:00;986;;;14.7;98.6
12722;BME280;6425;50.316;8.114;2023-09-19T04:45:00;986;;;14.7;98.7
12722;BME280;6425;50.316;8.114;2023-09-19T04:48:00;986;;;14.6;99.3
12722;BME280;6425;50.316;8.114;2023-09-19T04:51:00;986;;;14.6;99.7
12722;BME280;6425;50.316;8.114;2023-09-19T04:54:00;986;;;14.6;99.6
12722;BME280;6425;50.316;8.114;2023-09-19T04:57:00;986;;;14.6;99.5
12722;BME280;6425;50.316;8.114;2023-09-19T05:00:00;987;;;14.7;99.4
12722;BME280;6425;50.316;8.114;2023-09-19T05:03:00;987;;;14.7;99.2
12722;BME280;6425;50.316;8.114;2023-09-19T05:06:00;987;;;14.7;99.3
12722;BME280;6425;50.316;8.114;2023-09-19T05:09:00;987;;;14.7;99.8
12722;BME280;6425;50.316;8.114;2023-09-19T05:12:00;987;;;14.6;100
12722;BME280;6425;50.316;8.114;2023-09-19T05:15:00;987;;;14.7;99.9
12722;BME280;6425;50.316;8.114;2023-09-19T05:18:00;987;;;14.7;99.5
12722;BME280;6425;50.316;8.114;2023-09-19T05:21:01;987;;;14.7;99.5
12722;BME280;6425;50.316;8.114;2023-09-19T05:24:00;987;;;14.7;99.9
12722;BME280;6425;50.316;8.114;2023-09-19T05:27:00;987;;;14.9;99.1
12722;BME280;6425;50.316;8.114;2023-09-19T05:30:00;987;;;15.1;98.4
12722;BME280;6425;50.316;8.114;2023-09-19T05:33:00;987;;;15.2;96.4
12722;BME280;6425;50.316;8.114;2023-09-19T05:36:00;987;;;15.1;95.8
12722;BME280;6425;50.316;8.114;2023-09-19T05:39:00;987;;;15.1;95.5
12722;BME280;6425;50.316;8.114;2023-09-19T05:42:00;987;;;15;95.1
12722;BME280;6425;50.316;8.114;2023-09-19T05:45:00;987;;;14.9;95.1
12722;BME280;6425;50.316;8.114;2023-09-19T05:48:06;987;;;14.9;95.4
12722;BME280;6425;50.316;8.114;2023-09-19T05:51:00;987;;;14.9;94.8
12722;BME280;6425;50.316;8.114;2023-09-19T05:54:00;987;;;14.9;94.2
12722;BME280;6425;50.316;8.114;2023-09-19T05:57:00;987;;;14.8;94.7
12722;BME280;6425;50.316;8.114;2023-09-19T06:00:00;987;;;14.6;95.7
12722;BME280;6425;50.316;8.114;2023-09-19T06:03:00;987;;;14.5;97
12722;BME280;6425;50.316;8.114;2023-09-19T06:06:00;987;;;14.6;96.1
12722;BME280;6425;50.316;8.114;2023-09-19T06:09:00;987;;;14.6;96.8
12722;BME280;6425;50.316;8.114;2023-09-19T06:12:00;987;;;14.7;97
12722;BME280;6425;50.316;8.114;2023-09-19T06:15:00;987;;;14.8;96.2
12722;BME280;6425;50.316;8.114;2023-09-19T06:18:00;987;;;14.9;94.8
12722;BME280;6425;50.316;8.114;2023-09-19T06:21:00;987;;;14.7;94.6
12722;BME280;6425;50.316;8.114;2023-09-19T06:24:00;987;;;14.8;95.2
12722;BME280;6425;50.316;8.114;2023-09-19T06:27:00;987;;;14.9;96.4
12722;BME280;6425;50.316;8.114;2023-09-19T06:30:00;987;;;15;94.8
12722;BME280;6425;50.316;8.114;2023-09-19T06:33:00;987;;;14.9;93.2
12722;BME280;6425;50.316;8.114;2023-09-19T06:36:00;987;;;14.9;93.6
12722;BME280;6425;50.316;8.114;2023-09-19T06:39:00;987;;;14.7;94.9
12722;BME280;6425;50.316;8.114;2023-09-19T06:42:00;987;;;14.6;94.7
12722;BME280;6425;50.316;8.114;2023-09-19T06:45:00;988;;;14.6;94.4
12722;BME280;6425;50.316;8.114;2023-09-19T06:48:00;988;;;14.6;95.2
12722;BME280;6425;50.316;8.114;2023-09-19T06:51:00;988;;;14.7;95.4
12722;BME280;6425;50.316;8.114;2023-09-19T06:54:00;988;;;14.7;92.8
12722;BME280;6425;50.316;8.114;2023-09-19T06:57:00;988;;;14.7;92.1
12722;BME280;6425;50.316;8.114;2023-09-19T07:00:00;988;;;14.7;91.2
12722;BME280;6425;50.316;8.114;2023-09-19T07:03:00;988;;;14.6;90.6
12722;BME280;6425;50.316;8.114;2023-09-19T07:06:00;988;;;14.6;91
12722;BME280;6425;50.316;8.114;2023-09-19T07:09:00;988;;;14.7;91
12722;BME280;6425;50.316;8.114;2023-09-19T07:12:00;988;;;14.7;89.5
12722;BME280;6425;50.316;8.114;2023-09-19T07:15:00;988;;;14.8;89.5
12722;BME280;6425;50.316;8.114;2023-09-19T07:18:00;988;;;14.7;87.5
12722;BME280;6425;50.316;8.114;2023-09-19T07:21:00;988;;;14.7;86.5
12722;BME280;6425;50.316;8.114;2023-09-19T07:24:00;988;;;14.9;86.2
12722;BME280;6425;50.316;8.114;2023-09-19T07:27:00;988;;;14.8;86.1
12722;BME280;6425;50.316;8.114;2023-09-19T07:30:00;988;;;14.7;86.9
12722;BME280;6425;50.316;8.114;2023-09-19T07:33:00;988;;;14.7;87.1
12722;BME280;6425;50.316;8.114;2023-09-19T07:36:00;988;;;14.7;86.4
12722;BME280;6425;50.316;8.114;2023-09-19T07:39:00;988;;;14.7;85.2
12722;BME280;6425;50.316;8.114;2023-09-19T07:42:00;988;;;14.7;85.1
12722;BME280;6425;50.316;8.114;2023-09-19T07:45:00;988;;;14.7;84.3
12722;BME280;6425;50.316;8.114;2023-09-19T07:48:00;988;;;14.6;81.4
12722;BME280;6425;50.316;8.114;2023-09-19T07:51:01;988;;;14.6;81.4
12722;BME280;6425;50.316;8.114;2023-09-19T07:54:00;988;;;14.7;81.2
12722;BME280;6425;50.316;8.114;2023-09-19T07:57:00;988;;;14.6;81
12722;BME280;6425;50.316;8.114;2023-09-19T08:00:00;988;;;14.7;80.9
12722;BME280;6425;50.316;8.114;2023-09-19T08:03:00;988;;;14.7;81.8
12722;BME280;6425;50.316;8.114;2023-09-19T08:06:00;988;;;14.7;80.1
12722;BME280;6425;50.316;8.114;2023-09-19T08:09:00;988;;;14.8;80.9
12722;BME280;6425;50.316;8.114;2023-09-19T08:12:00;988;;;14.9;78.8
12722;BME280;6425;50.316;8.114;2023-09-19T08:15:00;988;;;14.8;77.9
12722;BME280;6425;50.316;8.114;2023-09-19T08:18:00;988;;;14.9;79.3
12722;BME280;6425;50.316;8.114;2023-09-19T08:21:00;988;;;14.9;77.1
12722;BME280;6425;50.316;8.114;2023-09-19T08:24:00;988;;;15.1;78
12722;BME280;6425;50.316;8.114;2023-09-19T08:27:00;988;;;15.1;76.9
12722;BME280;6425;50.316;8.114;2023-09-19T08:30:00;988;;;15.1;76.3
12722;BME280;6425;50.316;8.114;2023-09-19T08:33:00;988;;;15.4;77.1
12722;BME280;6425;50.316;8.114;2023-09-19T08:36:00;988;;;15.2;74.7
12722;BME280;6425;50.316;8.114;2023-09-19T08:39:00;989;;;15.2;75.9
12722;BME280;6425;50.316;8.114;2023-09-19T08:42:00;989;;;15;75.1
12722;BME280;6425;50.316;8.114;2023-09-19T08:45:00;989;;;15.1;75
12722;BME280;6425;50.316;8.114;2023-09-19T08:48:02;988;;;15.3;74.6
12722;BME280;6425;50.316;8.114;2023-09-19T08:51:00;989;;;15.1;73.6
12722;BME280;6425;50.316;8.114;2023-09-19T08:54:03;988;;;15.3;74.9
12722;BME280;6425;50.316;8.114;2023-09-19T08:57:00;989;;;15.4;73.5
12722;BME280;6425;50.316;8.114;2023-09-19T09:00:00;989;;;15.5;74.3
12722;BME280;6425;50.316;8.114;2023-09-19T09:03:00;988;;;15.4;71.6
12722;BME280;6425;50.316;8.114;2023-09-19T09:06:00;989;;;15.3;71.8
12722;BME280;6425;50.316;8.114;2023-09-19T09:09:00;989;;;15.3;70.1
12722;BME280;6425;50.316;8.114;2023-09-19T09:12:00;989;;;15.2;69.9
12722;BME280;6425;50.316;8.114;2023-09-19T09:15:00;989;;;15.3;70.6
12722;BME280;6425;50.316;8.114;2023-09-19T09:18:00;989;;;15.3;70.2
12722;BME280;6425;50.316;8.114;2023-09-19T09:21:00;989;;;15.3;71.1
12722;BME280;6425;50.316;8.114;2023-09-19T09:24:00;989;;;15.5;71.6
12722;BME280;6425;50.316;8.114;2023-09-19T09:27:00;989;;;15.4;70.9
12722;BME280;6425;50.316;8.114;2023-09-19T09:30:00;989;;;15.7;69.9
12722;BME280;6425;50.316;8.114;2023-09-19T09:33:07;989;;;15.8;70.4
12722;BME280;6425;50.316;8.114;2023-09-19T09:36:00;989;;;15.9;70.1
12722;BME280;6425;50.316;8.114;2023-09-19T09:39:00;989;;;16.1;71.6
12722;BME280;6425;50.316;8.114;2023-09-19T09:42:00;989;;;16.4;71.7
12722;BME280;6425;50.316;8.114;2023-09-19T09:45:16;989;;;16.3;72.6
12722;BME280;6425;50.316;8.114;2023-09-19T09:48:00;989;;;16.3;71.7
12722;BME280;6425;50.316;8.114;2023-09-19T09:51:00;989;;;16.4;71.5
12722;BME280;6425;50.316;8.114;2023-09-19T09:54:09;989;;;16.3;67.5
12722;BME280;6425;50.316;8.114;2023-09-19T09:57:00;989;;;16;66.1
12722;BME280;6425;50.316;8.114;2023-09-19T10:00:00;989;;;16.1;67.4
12722;BME280;6425;50.316;8.114;2023-09-19T10:03:00;989;;;16.1;64.6
12722;BME280;6425;50.316;8.114;2023-09-19T10:06:00;989;;;16.1;65.2
12722;BME280;6425;50.316;8.114;2023-09-19T10:09:00;989;;;16;68
12722;BME280;6425;50.316;8.114;2023-09-19T10:12:00;989;;;16.5;66.5
12722;BME280;6425;50.316;8.114;2023-09-19T10:15:00;989;;;16.5;65.7
12722;BME280;6425;50.316;8.114;2023-09-19T10:18:00;989;;;16.5;65.6
12722;BME280;6425;50.316;8.114;2023-09-19T10:21:00;989;;;16.5;64.3
12722;BME280;6425;50.316;8.114;2023-09-19T10:24:00;989;;;16.4;64.4
12722;BME280;6425;50.316;8.114;2023-09-19T10:27:00;988;;;16.4;64.2
12722;BME280;6425;50.316;8.114;2023-09-19T10:30:00;989;;;16.2;65.1
12722;BME280;6425;50.316;8.114;2023-09-19T10:33:01;988;;;16.3;63
12722;BME280;6425;50.316;8.114;2023-09-19T10:36:00;989;;;16.3;65.1
12722;BME280;6425;50.316;8.114;2023-09-19T10:39:00;989;;;16.2;64
12722;BME280;6425;50.316;8.114;2023-09-19T10:42:02;989;;;16.5;63.8
12722;BME280;6425;50.316;8.114;2023-09-19T10:45:00;988;;;16.3;62.5
12722;BME280;6425;50.316;8.114;2023-09-19T10:48:00;988;;;16.4;63.8
12722;BME280;6425;50.316;8.114;2023-09-19T10:51:01;989;;;16.4;63.9
12722;BME280;6425;50.316;8.114;2023-09-19T10:54:01;989;;;16.5;62.5
12722;BME280;6425;50.316;8.114;2023-09-19T10:57:00;988;;;16.5;60.4
12722;BME280;6425;50.316;8.114;2023-09-19T11:00:00;989;;;16.5;60.7
12722;BME280;6425;50.316;8.114;2023-09-19T11:03:16;988;;;16.7;61.2
12722;BME280;6425;50.316;8.114;2023-09-19T11:06:01;988;;;16.6;62.2
12722;BME280;6425;50.316;8.114;2023-09-19T11:09:00;988;;;16.9;61.1
12722;BME280;6425;50.316;8.114;2023-09-19T11:12:00;988;;;17.4;59.4
12722;BME280;6425;50.316;8.114;2023-09-19T11:15:00;988;;;18;60.2
12722;BME280;6425;50.316;8.114;2023-09-19T11:18:00;988;;;17.5;58.2
12722;BME280;6425;50.316;8.114;2023-09-19T11:21:32;988;;;17.1;60.2
12722;BME280;6425;50.316;8.114;2023-09-19T11:24:31;988;;;17.2;59.7
12722;BME280;6425;50.316;8.114;2023-09-19T11:27:15;988;;;17.2;58.2
12722;BME280;6425;50.316;8.114;2023-09-19T11:30:25;988;;;17.1;56.6
12722;BME280;6425;50.316;8.114;2023-09-19T11:33:15;988;;;17.4;55.5
12722;BME280;6425;50.316;8.114;2023-09-19T11:36:01;988;;;17.6;56.9
12722;BME280;6425;50.316;8.114;2023-09-19T11:39:00;988;;;17.8;56.1
12722;BME280;6425;50.316;8.114;2023-09-19T11:42:00;988;;;17.7;55.2
12722;BME280;6425;50.316;8.114;2023-09-19T11:45:00;988;;;17.8;55.8
12722;BME280;6425;50.316;8.114;2023-09-19T11:48:00;988;;;17.7;56.4
12722;BME280;6425;50.316;8.114;2023-09-19T11:51:00;988;;;17.9;55
12722;BME280;6425;50.316;8.114;2023-09-19T11:54:00;988;;;18.3;54.6
12722;BME280;6425;50.316;8.114;2023-09-19T11:57:00;988;;;18;54.5
12722;BME280;6425;50.316;8.114;2023-09-19T12:00:00;988;;;18.3;55.3
12722;BME280;6425;50.316;8.114;2023-09-19T12:03:00;988;;;18.5;55.6
12722;BME280;6425;50.316;8.114;2023-09-19T12:06:00;988;;;18;55.6
12722;BME280;6425;50.316;8.114;2023-09-19T12:09:00;988;;;18.1;55.7
12722;BME280;6425;50.316;8.114;2023-09-19T12:12:00;988;;;18.1;54.1
12722;BME280;6425;50.316;8.114;2023-09-19T12:15:00;988;;;18.3;55.3
12722;BME280;6425;50.316;8.114;2023-09-19T12:18:00;988;;;18.3;55.7
12722;BME280;6425;50.316;8.114;2023-09-19T12:21:00;988;;;17.8;54.2
12722;BME280;6425;50.316;8.114;2023-09-19T12:24:09;988;;;17.7;54.9
12722;BME280;6425;50.316;8.114;2023-09-19T12:27:00;988;;;18.1;55.8
12722;BME280;6425;50.316;8.114;2023-09-19T12:30:00;988;;;17.9;54.1
12722;BME280;6425;50.316;8.114;2023-09-19T12:33:00;988;;;17.9;54.4
12722;BME280;6425;50.316;8.114;2023-09-19T12:36:00;988;;;18.1;54.1
12722;BME280;6425;50.316;8.114;2023-09-19T12:39:00;988;;;18.6;52.2
12722;BME280;6425;50.316;8.114;2023-09-19T12:42:00;988;;;18.5;53.7
12722;BME280;6425;50.316;8.114;2023-09-19T12:45:00;988;;;18.4;53.8
12722;BME280;6425;50.316;8.114;2023-09-19T12:48:31;988;;;18.4;54.1
12722;BME280;6425;50.316;8.114;2023-09-19T12:51:01;988;;;18.8;53
12722;BME280;6425;50.316;8.114;2023-09-19T12:54:00;988;;;18.3;53.2
12722;BME280;6425;50.316;8.114;2023-09-19T12:57:00;988;;;18.3;54.4
12722;BME280;6425;50.316;8.114;2023-09-19T13:00:00;988;;;18.1;55.8
12722;BME280;6425;50.316;8.114;2023-09-19T13:03:11;988;;;18.1;55.2
12722;BME280;6425;50.316;8.114;2023-09-19T13:06:00;988;;;18.3;54.7
12722;BME280;6425;50.316;8.114;2023-09-19T13:09:07;988;;;18.3;55.9
12722;BME280;6425;50.316;8.114;2023-09-19T13:12:00;988;;;18.3;54.4
12722;BME280;6425;50.316;8.114;2023-09-19T13:15:07;988;;;18.3;55.4
12722;BME280;6425;50.316;8.114;2023-09-19T13:18:01;988;;;18.7;55.4
12722;BME280;6425;50.316;8.114;2023-09-19T13:21:07;988;;;18.9;54.3
12722;BME280;6425;50.316;8.114;2023-09-19T13:24:17;988;;;18.8;54.1
12722;BME280;6425;50.316;8.114;2023-09-19T13:27:00;988;;;18.9;53.8
12722;BME280;6425;50.316;8.114;2023-09-19T13:30:00;988;;;18.9;54.1
12722;BME280;6425;50.316;8.114;2023-09-19T13:33:08;988;;;19;53.8
12722;BME280;6425;50.316;8.114;2023-09-19T13:36:00;988;;;19.2;53.6
12722;BME280;6425;50.316;8.114;2023-09-19T13:39:00;988;;;19.1;53.5
12722;BME280;6425;50.316;8.114;2023-09-19T13:42:00;988;;;18.9;53.8
12722;BME280;6425;50.316;8.114;2023-09-19T13:45:00;988;;;18.8;52.6
12722;BME280;6425;50.316;8.114;2023-09-19T13:48:00;988;;;19.1;52.3
12722;BME280;6425;50.316;8.114;2023-09-19T13:51:00;988;;;19.2;52.2
12722;BME280;6425;50.316;8.114;2023-09-19T13:54:00;988;;;19;52.1
12722;BME280;6425;50.316;8.114;2023-09-19T13:57:00;988;;;19.1;52.2
12722;BME280;6425;50.316;8.114;2023-09-19T14:00:00;987;;;19.1;51
12722;BME280;6425;50.316;8.114;2023-09-19T14:03:00;988;;;19.5;50.9
12722;BME280;6425;50.316;8.114;2023-09-19T14:06:00;987;;;19.8;50.4
12722;BME280;6425;50.316;8.114;2023-09-19T14:09:00;987;;;19.7;49.4
12722;BME280;6425;50.316;8.114;2023-09-19T14:12:00;988;;;19.6;51.8
12722;BME280;6425;50.316;8.114;2023-09-19T14:15:00;988;;;19.7;49.7
12722;BME280;6425;50.316;8.114;2023-09-19T14:18:00;987;;;19.6;49.4
12722;BME280;6425;50.316;8.114;2023-09-19T14:21:01;988;;;19.4;50.3
12722;BME280;6425;50.316;8.114;2023-09-19T14:24:00;987;;;19.7;51.5
12722;BME280;6425;50.316;8.114;2023-09-19T14:27:00;987;;;19.4;49.6
12722;BME280;6425;50.316;8.114;2023-09-19T14:30:00;987;;;19.2;50.3
12722;BME280;6425;50.316;8.114;2023-09-19T14:33:00;987;;;19.3;49.9
12722;BME280;6425;50.316;8.114;2023-09-19T14:36:02;987;;;19.5;51
12722;BME280;6425;50.316;8.114;2023-09-19T14:39:00;987;;;19.5;50.6
12722;BME280;6425;50.316;8.114;2023-09-19T14:42:00;987;;;19.3;50.8
12722;BME280;6425;50.316;8.114;2023-09-19T14:45:00;987;;;19.6;49.6
12722;BME280;6425;50.316;8.114;2023-09-19T14:48:00;987;;;19.7;49
12722;BME280;6425;50.316;8.114;2023-09-19T14:51:03;987;;;19.5;49.6
12722;BME280;6425;50.316;8.114;2023-09-19T14:54:00;987;;;19.3;49.5
12722;BME280;6425;50.316;8.114;2023-09-19T14:57:00;987;;;19.4;49.5
12722;BME280;6425;50.316;8.114;2023-09-19T15:00:00;987;;;19.6;49.2
12722;BME280;6425;50.316;8.114;2023-09-19T15:03:00;987;;;19.4;50.4
12722;BME280;6425;50.316;8.114;2023-09-19T15:06:00;987;;;19.9;49.5
12722;BME280;6425;50.316;8.114;2023-09-19T15:09:00;987;;;19.9;50.1
12722;BME280;6425;50.316;8.114;2023-09-19T15:12:00;987;;;19.9;50.4
12722;BME280;6425;50.316;8.114;2023-09-19T15:15:00;987;;;20.1;49
12722;BME280;6425;50.316;8.114;2023-09-19T15:18:00;987;;;20.1;48.3
12722;BME280;6425;50.316;8.114;2023-09-19T15:21:00;987;;;19.9;48.5
12722;BME280;6425;50.316;8.114;2023-09-19T15:24:00;987;;;19.6;49
12722;BME280;6425;50.316;8.114;2023-09-19T15:27:00;987;;;19.7;49.1
12722;BME280;6425;50.316;8.114;2023-09-19T15:30:00;987;;;19.5;49.4
12722;BME280;6425;50.316;8.114;2023-09-19T15:33:00;987;;;19.6;49.7
12722;BME280;6425;50.316;8.114;2023-09-19T15:36:00;987;;;19.5;49.6
12722;BME280;6425;50.316;8.114;2023-09-19T15:39:00;987;;;19.5;50.2
12722;BME280;6425;50.316;8.114;2023-09-19T15:42:00;987;;;19.7;50.6
12722;BME280;6425;50.316;8.114;2023-09-19T15:45:00;987;;;20;49.8
12722;BME280;6425;50.316;8.114;2023-09-19T15:48:00;987;;;19.7;49.4
12722;BME280;6425;50.316;8.114;2023-09-19T15:51:02;987;;;19.4;50.3
12722;BME280;6425;50.316;8.114;2023-09-19T15:54:01;987;;;19.4;50.5
12722;BME280;6425;50.316;8.114;2023-09-19T15:57:00;987;;;19.4;51.6
12722;BME280;6425;50.316;8.114;2023-09-19T16:00:00;987;;;19.4;51.1
12722;BME280;6425;50.316;8.114;2023-09-19T16:03:00;987;;;19.1;51.9
12722;BME280;6425;50.316;8.114;2023-09-19T16:06:00;987;;;19.2;52.2
12722;BME280;6425;50.316;8.114;2023-09-19T16:09:00;987;;;19.2;52.4
12722;BME280;6425;50.316;8.114;2023-09-19T16:12:00;987;;;19.2;53.1
12722;BME280;6425;50.316;8.114;2023-09-19T16:15:00;987;;;19.3;53.1
12722;BME280;6425;50.316;8.114;2023-09-19T16:18:00;987;;;19.3;53.5
12722;BME280;6425;50.316;8.114;2023-09-19T16:21:00;987;;;19.2;53.6
12722;BME280;6425;50.316;8.114;2023-09-19T16:24:00;987;;;19.3;53.6
12722;BME280;6425;50.316;8.114;2023-09-19T16:27:00;987;;;19.4;53.6
12722;BME280;6425;50.316;8.114;2023-09-19T16:30:00;987;;;19.4;53.5
12722;BME280;6425;50.316;8.114;2023-09-19T16:33:00;987;;;19.1;54.4
12722;BME280;6425;50.316;8.114;2023-09-19T16:36:00;987;;;19.2;55.8
12722;BME280;6425;50.316;8.114;2023-09-19T16:39:00;987;;;19.2;55.2
12722;BME280;6425;50.316;8.114;2023-09-19T16:42:00;987;;;19.1;55.7
12722;BME280;6425;50.316;8.114;2023-09-19T16:45:00;987;;;19.3;55.1
12722;BME280;6425;50.316;8.114;2023-09-19T16:48:00;987;;;19.2;55.2
12722;BME280;6425;50.316;8.114;2023-09-19T16:51:00;987;;;18.9;55.4
12722;BME280;6425;50.316;8.114;2023-09-19T16:54:00;987;;;18.9;56.6
12722;BME280;6425;50.316;8.114;2023-09-19T16:57:00;987;;;18.9;56.1
12722;BME280;6425;50.316;8.114;2023-09-19T17:00:00;987;;;18.9;56.6
12722;BME280;6425;50.316;8.114;2023-09-19T17:03:00;987;;;18.8;56.5
12722;BME280;6425;50.316;8.114;2023-09-19T17:06:00;987;;;18.6;57.3
12722;BME280;6425;50.316;8.114;2023-09-19T17:09:00;987;;;18.5;58.4
12722;BME280;6425;50.316;8.114;2023-09-19T17:12:00;987;;;18.5;58.6
12722;BME280;6425;50.316;8.114;2023-09-19T17:15:00;987;;;18.4;59
12722;BME280;6425;50.316;8.114;2023-09-19T17:18:00;987;;;18.4;58.8
12722;BME280;6425;50.316;8.114;2023-09-19T17:21:00;987;;;18.4;59.2
12722;BME280;6425;50.316;8.114;2023-09-19T17:24:00;987;;;18.2;59.7
12722;BME280;6425;50.316;8.114;2023-09-19T17:27:00;987;;;18.1;60.7
12722;BME280;6425;50.316;8.114;2023-09-19T17:30:00;987;;;18;61.2
12722;BME280;6425;50.316;8.114;2023-09-19T17:33:00;987;;;17.9;62.2
12722;BME280;6425;50.316;8.114;2023-09-19T17:36:07;987;;;18;61.8
12722;BME280;6425;50.316;8.114;2023-09-19T17:39:00;987;;;18.4;61.1
12722;BME280;6425;50.316;8.114;2023-09-19T17:42:00;987;;;18.7;59.7
12722;BME280;6425;50.316;8.114;2023-09-19T17:45:00;987;;;18.3;59.5
12722;BME280;6425;50.316;8.114;2023-09-19T17:48:00;987;;;18.3;61.2
12722;BME280;6425;50.316;8.114;2023-09-19T17:51:00;987;;;18.4;60.3